KNFL/NFL METAR and TAF weather

Enter ICAO airport designator
Station Type Date Time Source
KNFL METAR 2020/02/27 13:56 UTC NOAA

KNFL 271356Z AUTO 00000KT 10SM CLR M06/M12 A3039 RMK AO2 SLP246 T10611122


Station Type Date Time Source
KNFL Decoded METAR 2020/02/27 13:56 UTC NOAA

FALLON NAVAL AIR STATION, NV, United States (KNFL) 39-26N 118-41W 1199M
Feb 27, 2020 - 08:56 AM EST / 2020.02.27 1356 UTC
Wind: Calm:0
Visibility: 10 mile(s):0
Sky conditions: clear
Temperature: 21.0 F (-6.1 C)
Dew Point: 10.0 F (-12.2 C)
Relative Humidity: 61%
Pressure (altimeter): 30.39 in. Hg (1029 hPa)
ob: KNFL 271356Z AUTO 00000KT 10SM CLR M06/M12 A3039 RMK AO2 SLP246 T10611122
cycle: 14

Station Type Date Time Source
KNFL TAF 2020/02/27 07:11 UTC NOAA

TAF KNFL 2707/2807 VRB06KT 9999 FEW200 QNH3030INS AUTOMATED SENSOR METWATCH 2707 TIL 2714 TM02/2713Z T18/2723Z FS30145

Example: see airport list